G.bellini — IKGF — position and weather

sailwx.info

Track history (hours):
 
Tides and Currents Weather Stations Pressure Air Temp Water Temp Dewpoint Dewpoint Depression Visibility Wind Speed Wind Dir Waves Ship Positions

G.bellini

Last reported at 2017-Apr-30 06:54 UTC. Time now 2017-Apr-30 07:03 UTC.
Position N 42°51' E 010°29'.

Length 72 m; draft 3.3 m.

Type: Ship. MMSI: 247041900.

Date/timePositionNaut miles runAvg speedWind from/ knotsBaromVisibWave heightAir tempDewpointWater temp
2017-Apr-30 06:54N 42°51' E 010°29'2 0.1
2017-Apr-29 17:49N 42°49' E 010°27'514.8
2017-Apr-29 17:31N 42°53' E 010°31'3 4.3
2017-Apr-29 16:44N 42°56' E 010°33'2 8.9
2017-Apr-29 16:28N 42°54' E 010°32'6 7.0
2017-Apr-29 15:34N 42°49' E 010°26'114.1
2017-Apr-29 15:30N 42°50' E 010°27'814.6
2017-Apr-29 14:59N 42°56' E 010°34'1 0.5
2017-Apr-29 13:53N 42°56' E 010°33'3 7.3
2017-Apr-29 13:30N 42°53' E 010°32'1 0.3
2017-Apr-29 10:12N 42°54' E 010°32'12 0.3
2017-Apr-27 13:40N 42°43' E 010°27'14 3.2
2017-Apr-27 09:13N 42°37' E 010°09'414.6
2017-Apr-27 08:58N 42°38' E 010°14'  
2017-Apr-24 15:17N 42°55' E 010°32'2 3.1
2017-Apr-24 14:40N 42°56' E 010°34'2 0.9
2017-Apr-24 12:21N 42°54' E 010°32'3 2.8
2017-Apr-24 11:11N 42°53' E 010°28'7 0.5
2017-Apr-23 19:33N 42°49' E 010°20'214.6
2017-Apr-23 19:27N 42°50' E 010°22'  
Track history (hours):
 
Tides and Currents Weather Stations Pressure Air Temp Water Temp Dewpoint Dewpoint Depression Visibility Wind Speed Wind Dir Waves Ship Positions

G.bellini

Last reported at 2017-Apr-30 06:54 UTC. Time now 2017-Apr-30 07:03 UTC.
Position N 42°51' E 010°29'.

Length 72 m; draft 3.3 m.

Type: Ship. MMSI: 247041900.

Date/timePositionNaut miles runAvg speedWind from/ knotsBaromVisibWave heightAir tempDewpointWater temp
2017-Apr-30 06:54N 42°51' E 010°29'2 0.1
2017-Apr-29 17:49N 42°49' E 010°27'514.8
2017-Apr-29 17:31N 42°53' E 010°31'3 4.3
2017-Apr-29 16:44N 42°56' E 010°33'2 8.9
2017-Apr-29 16:28N 42°54' E 010°32'6 7.0
2017-Apr-29 15:34N 42°49' E 010°26'114.1
2017-Apr-29 15:30N 42°50' E 010°27'814.6
2017-Apr-29 14:59N 42°56' E 010°34'1 0.5
2017-Apr-29 13:53N 42°56' E 010°33'3 7.3
2017-Apr-29 13:30N 42°53' E 010°32'1 0.3
2017-Apr-29 10:12N 42°54' E 010°32'12 0.3
2017-Apr-27 13:40N 42°43' E 010°27'14 3.2
2017-Apr-27 09:13N 42°37' E 010°09'414.6
2017-Apr-27 08:58N 42°38' E 010°14'  
2017-Apr-24 15:17N 42°55' E 010°32'2 3.1
2017-Apr-24 14:40N 42°56' E 010°34'2 0.9
2017-Apr-24 12:21N 42°54' E 010°32'3 2.8
2017-Apr-24 11:11N 42°53' E 010°28'7 0.5
2017-Apr-23 19:33N 42°49' E 010°20'214.6
2017-Apr-23 19:27N 42°50' E 010°22'  

Dump ship's entire track history